sensor_id;sensor_type;location;lat;lon;timestamp;P1;durP1;ratioP1;P2;durP2;ratioP2
73776;SDS011;62088;50.240;2.696;2023-04-24T00:01:25;10.85;;;6.38;;
73776;SDS011;62088;50.240;2.696;2023-04-24T00:03:53;11.10;;;6.05;;
73776;SDS011;62088;50.240;2.696;2023-04-24T00:06:20;12.60;;;6.28;;
73776;SDS011;62088;50.240;2.696;2023-04-24T00:08:49;12.95;;;5.88;;
73776;SDS011;62088;50.240;2.696;2023-04-24T00:11:16;10.30;;;5.55;;
73776;SDS011;62088;50.240;2.696;2023-04-24T00:13:44;14.00;;;6.30;;
73776;SDS011;62088;50.240;2.696;2023-04-24T00:16:11;13.65;;;6.53;;
73776;SDS011;62088;50.240;2.696;2023-04-24T00:18:38;8.43;;;5.28;;
73776;SDS011;62088;50.240;2.696;2023-04-24T00:21:06;12.20;;;5.38;;
73776;SDS011;62088;50.240;2.696;2023-04-24T00:23:33;13.98;;;5.45;;
73776;SDS011;62088;50.240;2.696;2023-04-24T00:26:00;10.88;;;5.50;;
73776;SDS011;62088;50.240;2.696;2023-04-24T00:28:27;11.70;;;4.85;;
73776;SDS011;62088;50.240;2.696;2023-04-24T00:30:55;15.60;;;5.55;;
73776;SDS011;62088;50.240;2.696;2023-04-24T00:33:22;12.65;;;5.47;;
73776;SDS011;62088;50.240;2.696;2023-04-24T00:35:50;12.20;;;5.28;;
73776;SDS011;62088;50.240;2.696;2023-04-24T00:38:17;12.15;;;5.75;;
73776;SDS011;62088;50.240;2.696;2023-04-24T00:40:45;8.10;;;5.10;;
73776;SDS011;62088;50.240;2.696;2023-04-24T00:43:13;13.23;;;5.60;;
73776;SDS011;62088;50.240;2.696;2023-04-24T00:45:41;9.95;;;5.45;;
73776;SDS011;62088;50.240;2.696;2023-04-24T00:48:08;15.70;;;5.95;;
73776;SDS011;62088;50.240;2.696;2023-04-24T00:50:36;10.98;;;5.15;;
73776;SDS011;62088;50.240;2.696;2023-04-24T00:53:03;16.70;;;6.32;;
73776;SDS011;62088;50.240;2.696;2023-04-24T00:55:30;11.00;;;5.45;;
73776;SDS011;62088;50.240;2.696;2023-04-24T00:57:58;13.07;;;5.88;;
73776;SDS011;62088;50.240;2.696;2023-04-24T01:00:25;7.93;;;5.60;;
73776;SDS011;62088;50.240;2.696;2023-04-24T01:02:53;11.20;;;5.60;;
73776;SDS011;62088;50.240;2.696;2023-04-24T01:05:21;9.93;;;5.25;;
73776;SDS011;62088;50.240;2.696;2023-04-24T01:07:49;8.38;;;5.13;;
73776;SDS011;62088;50.240;2.696;2023-04-24T01:10:16;11.15;;;5.65;;
73776;SDS011;62088;50.240;2.696;2023-04-24T01:12:45;13.48;;;5.80;;
73776;SDS011;62088;50.240;2.696;2023-04-24T01:15:12;8.50;;;5.55;;
73776;SDS011;62088;50.240;2.696;2023-04-24T01:17:41;10.13;;;5.40;;
73776;SDS011;62088;50.240;2.696;2023-04-24T01:20:08;9.57;;;3.83;;
73776;SDS011;62088;50.240;2.696;2023-04-24T01:22:35;9.95;;;5.38;;
73776;SDS011;62088;50.240;2.696;2023-04-24T01:25:03;12.73;;;5.80;;
73776;SDS011;62088;50.240;2.696;2023-04-24T01:27:31;10.02;;;5.45;;
73776;SDS011;62088;50.240;2.696;2023-04-24T01:29:59;7.90;;;5.07;;
73776;SDS011;62088;50.240;2.696;2023-04-24T01:32:29;11.63;;;5.20;;
73776;SDS011;62088;50.240;2.696;2023-04-24T01:34:56;8.52;;;5.78;;
73776;SDS011;62088;50.240;2.696;2023-04-24T01:37:23;10.10;;;5.72;;
73776;SDS011;62088;50.240;2.696;2023-04-24T01:39:50;10.55;;;5.60;;
73776;SDS011;62088;50.240;2.696;2023-04-24T01:42:17;10.52;;;5.00;;
73776;SDS011;62088;50.240;2.696;2023-04-24T01:44:46;15.38;;;6.05;;
73776;SDS011;62088;50.240;2.696;2023-04-24T01:47:13;13.07;;;6.45;;
73776;SDS011;62088;50.240;2.696;2023-04-24T01:49:40;12.88;;;6.10;;
73776;SDS011;62088;50.240;2.696;2023-04-24T01:52:08;13.65;;;7.22;;
73776;SDS011;62088;50.240;2.696;2023-04-24T01:54:35;12.73;;;8.30;;
73776;SDS011;62088;50.240;2.696;2023-04-24T01:57:02;13.55;;;8.80;;
73776;SDS011;62088;50.240;2.696;2023-04-24T01:59:29;13.98;;;8.75;;
73776;SDS011;62088;50.240;2.696;2023-04-24T02:01:58;17.50;;;9.82;;
73776;SDS011;62088;50.240;2.696;2023-04-24T02:04:26;16.45;;;10.32;;
73776;SDS011;62088;50.240;2.696;2023-04-24T02:06:53;13.50;;;9.95;;
73776;SDS011;62088;50.240;2.696;2023-04-24T02:09:20;15.18;;;9.98;;
73776;SDS011;62088;50.240;2.696;2023-04-24T02:11:47;18.67;;;10.40;;
73776;SDS011;62088;50.240;2.696;2023-04-24T02:14:14;16.27;;;11.07;;
73776;SDS011;62088;50.240;2.696;2023-04-24T02:16:41;19.25;;;12.45;;
73776;SDS011;62088;50.240;2.696;2023-04-24T02:19:10;17.45;;;12.00;;
73776;SDS011;62088;50.240;2.696;2023-04-24T02:21:37;18.05;;;12.48;;
73776;SDS011;62088;50.240;2.696;2023-04-24T02:24:04;17.95;;;13.38;;
73776;SDS011;62088;50.240;2.696;2023-04-24T02:26:31;18.90;;;13.63;;
73776;SDS011;62088;50.240;2.696;2023-04-24T02:28:58;20.67;;;14.45;;
73776;SDS011;62088;50.240;2.696;2023-04-24T02:31:25;21.40;;;14.07;;
73776;SDS011;62088;50.240;2.696;2023-04-24T02:33:53;20.55;;;14.85;;
73776;SDS011;62088;50.240;2.696;2023-04-24T02:36:20;21.20;;;14.65;;
73776;SDS011;62088;50.240;2.696;2023-04-24T02:38:47;22.27;;;15.52;;
73776;SDS011;62088;50.240;2.696;2023-04-24T02:41:14;21.70;;;15.52;;
73776;SDS011;62088;50.240;2.696;2023-04-24T02:43:41;19.92;;;14.98;;
73776;SDS011;62088;50.240;2.696;2023-04-24T02:46:08;20.88;;;15.43;;
73776;SDS011;62088;50.240;2.696;2023-04-24T02:48:36;24.88;;;16.92;;
73776;SDS011;62088;50.240;2.696;2023-04-24T02:51:03;25.40;;;17.60;;
73776;SDS011;62088;50.240;2.696;2023-04-24T02:53:30;20.73;;;16.63;;
73776;SDS011;62088;50.240;2.696;2023-04-24T02:55:57;22.17;;;16.38;;
73776;SDS011;62088;50.240;2.696;2023-04-24T02:58:24;23.90;;;18.38;;
73776;SDS011;62088;50.240;2.696;2023-04-24T03:00:55;24.13;;;17.55;;
73776;SDS011;62088;50.240;2.696;2023-04-24T03:03:22;25.38;;;17.83;;
73776;SDS011;62088;50.240;2.696;2023-04-24T03:05:50;23.90;;;19.30;;
73776;SDS011;62088;50.240;2.696;2023-04-24T03:08:17;25.98;;;18.92;;
73776;SDS011;62088;50.240;2.696;2023-04-24T03:10:45;24.52;;;18.85;;
73776;SDS011;62088;50.240;2.696;2023-04-24T03:13:14;25.40;;;18.88;;
73776;SDS011;62088;50.240;2.696;2023-04-24T03:15:42;24.85;;;19.40;;
73776;SDS011;62088;50.240;2.696;2023-04-24T03:18:09;25.25;;;18.55;;
73776;SDS011;62088;50.240;2.696;2023-04-24T03:20:37;27.33;;;19.33;;
73776;SDS011;62088;50.240;2.696;2023-04-24T03:23:04;23.23;;;18.80;;
73776;SDS011;62088;50.240;2.696;2023-04-24T03:25:31;24.08;;;19.23;;
73776;SDS011;62088;50.240;2.696;2023-04-24T03:27:58;25.42;;;18.63;;
73776;SDS011;62088;50.240;2.696;2023-04-24T03:30:36;25.92;;;20.05;;
73776;SDS011;62088;50.240;2.696;2023-04-24T03:33:04;26.63;;;18.50;;
73776;SDS011;62088;50.240;2.696;2023-04-24T03:35:34;26.83;;;19.23;;
73776;SDS011;62088;50.240;2.696;2023-04-24T03:38:07;24.08;;;19.10;;
73776;SDS011;62088;50.240;2.696;2023-04-24T03:40:52;26.50;;;20.05;;
73776;SDS011;62088;50.240;2.696;2023-04-24T03:43:37;26.08;;;19.63;;
73776;SDS011;62088;50.240;2.696;2023-04-24T03:46:05;26.05;;;20.33;;
73776;SDS011;62088;50.240;2.696;2023-04-24T03:48:40;24.35;;;19.92;;
73776;SDS011;62088;50.240;2.696;2023-04-24T03:51:08;24.23;;;19.50;;
73776;SDS011;62088;50.240;2.696;2023-04-24T03:53:38;24.58;;;20.27;;
73776;SDS011;62088;50.240;2.696;2023-04-24T03:56:06;24.45;;;20.10;;
73776;SDS011;62088;50.240;2.696;2023-04-24T03:58:33;23.75;;;19.67;;
73776;SDS011;62088;50.240;2.696;2023-04-24T04:01:00;24.10;;;20.20;;
73776;SDS011;62088;50.240;2.696;2023-04-24T04:03:37;25.80;;;20.63;;
73776;SDS011;62088;50.240;2.696;2023-04-24T04:06:04;26.42;;;20.95;;
73776;SDS011;62088;50.240;2.696;2023-04-24T04:08:32;24.65;;;19.40;;
73776;SDS011;62088;50.240;2.696;2023-04-24T04:10:59;25.98;;;19.85;;
73776;SDS011;62088;50.240;2.696;2023-04-24T04:13:28;28.17;;;19.48;;
73776;SDS011;62088;50.240;2.696;2023-04-24T04:15:55;24.17;;;18.98;;
73776;SDS011;62088;50.240;2.696;2023-04-24T04:18:23;23.83;;;19.58;;
73776;SDS011;62088;50.240;2.696;2023-04-24T04:20:50;20.70;;;17.05;;
73776;SDS011;62088;50.240;2.696;2023-04-24T04:23:17;22.27;;;17.55;;
73776;SDS011;62088;50.240;2.696;2023-04-24T04:25:57;20.05;;;16.52;;
73776;SDS011;62088;50.240;2.696;2023-04-24T04:28:35;20.95;;;16.27;;
73776;SDS011;62088;50.240;2.696;2023-04-24T04:31:02;19.60;;;16.23;;
73776;SDS011;62088;50.240;2.696;2023-04-24T04:33:29;17.20;;;14.10;;
73776;SDS011;62088;50.240;2.696;2023-04-24T04:35:57;19.55;;;15.68;;
73776;SDS011;62088;50.240;2.696;2023-04-24T04:38:27;17.83;;;15.20;;
73776;SDS011;62088;50.240;2.696;2023-04-24T04:41:19;17.58;;;14.70;;
73776;SDS011;62088;50.240;2.696;2023-04-24T04:43:46;18.88;;;15.38;;
73776;SDS011;62088;50.240;2.696;2023-04-24T04:46:14;19.92;;;16.48;;
73776;SDS011;62088;50.240;2.696;2023-04-24T04:49:04;19.92;;;15.85;;
73776;SDS011;62088;50.240;2.696;2023-04-24T04:51:31;21.38;;;17.27;;
73776;SDS011;62088;50.240;2.696;2023-04-24T04:53:58;19.65;;;17.52;;
73776;SDS011;62088;50.240;2.696;2023-04-24T04:56:26;20.25;;;17.05;;
73776;SDS011;62088;50.240;2.696;2023-04-24T04:58:53;22.40;;;17.77;;
73776;SDS011;62088;50.240;2.696;2023-04-24T05:01:20;21.38;;;18.15;;
73776;SDS011;62088;50.240;2.696;2023-04-24T05:03:49;22.83;;;18.40;;
73776;SDS011;62088;50.240;2.696;2023-04-24T05:06:17;20.52;;;17.40;;
73776;SDS011;62088;50.240;2.696;2023-04-24T05:08:45;22.85;;;18.58;;
73776;SDS011;62088;50.240;2.696;2023-04-24T05:11:34;22.10;;;18.05;;
73776;SDS011;62088;50.240;2.696;2023-04-24T05:14:01;22.83;;;17.98;;
73776;SDS011;62088;50.240;2.696;2023-04-24T05:16:36;22.33;;;18.15;;
73776;SDS011;62088;50.240;2.696;2023-04-24T05:19:04;21.70;;;18.42;;
73776;SDS011;62088;50.240;2.696;2023-04-24T05:21:38;24.13;;;19.63;;
73776;SDS011;62088;50.240;2.696;2023-04-24T05:24:06;15.50;;;8.82;;
73776;SDS011;62088;50.240;2.696;2023-04-24T05:26:52;25.90;;;19.70;;
73776;SDS011;62088;50.240;2.696;2023-04-24T05:29:24;22.45;;;18.60;;
73776;SDS011;62088;50.240;2.696;2023-04-24T05:31:53;23.60;;;17.55;;
73776;SDS011;62088;50.240;2.696;2023-04-24T05:34:21;24.83;;;19.83;;
73776;SDS011;62088;50.240;2.696;2023-04-24T05:36:52;16.08;;;8.73;;
73776;SDS011;62088;50.240;2.696;2023-04-24T05:39:19;23.33;;;19.33;;
73776;SDS011;62088;50.240;2.696;2023-04-24T05:41:46;20.83;;;17.95;;
73776;SDS011;62088;50.240;2.696;2023-04-24T05:44:14;25.40;;;19.42;;
73776;SDS011;62088;50.240;2.696;2023-04-24T05:46:41;23.77;;;19.83;;
73776;SDS011;62088;50.240;2.696;2023-04-24T05:49:09;22.08;;;19.50;;
73776;SDS011;62088;50.240;2.696;2023-04-24T05:51:36;26.63;;;19.85;;
73776;SDS011;62088;50.240;2.696;2023-04-24T05:54:04;22.90;;;19.17;;
73776;SDS011;62088;50.240;2.696;2023-04-24T05:56:31;24.00;;;19.35;;
73776;SDS011;62088;50.240;2.696;2023-04-24T05:59:00;23.48;;;19.30;;
73776;SDS011;62088;50.240;2.696;2023-04-24T06:01:27;22.88;;;20.13;;
73776;SDS011;62088;50.240;2.696;2023-04-24T06:04:04;25.30;;;19.85;;
73776;SDS011;62088;50.240;2.696;2023-04-24T06:06:32;24.80;;;20.02;;
73776;SDS011;62088;50.240;2.696;2023-04-24T06:08:59;26.38;;;19.38;;
73776;SDS011;62088;50.240;2.696;2023-04-24T06:11:27;17.25;;;12.55;;
73776;SDS011;62088;50.240;2.696;2023-04-24T06:13:55;23.15;;;19.60;;
73776;SDS011;62088;50.240;2.696;2023-04-24T06:16:37;25.15;;;19.15;;
73776;SDS011;62088;50.240;2.696;2023-04-24T06:19:16;24.63;;;20.05;;
73776;SDS011;62088;50.240;2.696;2023-04-24T06:21:43;20.42;;;18.25;;
73776;SDS011;62088;50.240;2.696;2023-04-24T06:24:10;23.75;;;19.73;;
73776;SDS011;62088;50.240;2.696;2023-04-24T06:26:40;26.45;;;19.42;;
73776;SDS011;62088;50.240;2.696;2023-04-24T06:29:08;24.27;;;20.08;;
73776;SDS011;62088;50.240;2.696;2023-04-24T06:31:35;23.83;;;18.83;;
73776;SDS011;62088;50.240;2.696;2023-04-24T06:34:03;24.30;;;19.38;;
73776;SDS011;62088;50.240;2.696;2023-04-24T06:36:31;24.92;;;18.55;;
73776;SDS011;62088;50.240;2.696;2023-04-24T06:39:01;23.02;;;18.80;;
73776;SDS011;62088;50.240;2.696;2023-04-24T06:41:28;23.52;;;18.83;;
73776;SDS011;62088;50.240;2.696;2023-04-24T06:43:55;26.42;;;19.42;;
73776;SDS011;62088;50.240;2.696;2023-04-24T06:46:22;23.33;;;18.42;;
73776;SDS011;62088;50.240;2.696;2023-04-24T06:48:53;23.30;;;18.95;;
73776;SDS011;62088;50.240;2.696;2023-04-24T06:51:23;24.30;;;18.58;;
73776;SDS011;62088;50.240;2.696;2023-04-24T06:53:52;22.42;;;17.55;;
73776;SDS011;62088;50.240;2.696;2023-04-24T06:56:20;19.55;;;12.88;;
73776;SDS011;62088;50.240;2.696;2023-04-24T06:58:47;24.80;;;18.70;;
73776;SDS011;62088;50.240;2.696;2023-04-24T07:01:14;23.15;;;18.10;;
73776;SDS011;62088;50.240;2.696;2023-04-24T07:03:41;19.60;;;16.90;;
73776;SDS011;62088;50.240;2.696;2023-04-24T07:06:09;22.52;;;18.20;;
73776;SDS011;62088;50.240;2.696;2023-04-24T07:08:37;21.73;;;17.48;;
73776;SDS011;62088;50.240;2.696;2023-04-24T07:11:04;23.33;;;16.38;;
73776;SDS011;62088;50.240;2.696;2023-04-24T07:13:32;22.23;;;17.65;;
73776;SDS011;62088;50.240;2.696;2023-04-24T07:15:59;22.63;;;17.20;;
73776;SDS011;62088;50.240;2.696;2023-04-24T07:18:26;25.38;;;18.15;;
73776;SDS011;62088;50.240;2.696;2023-04-24T07:20:53;21.13;;;17.42;;
73776;SDS011;62088;50.240;2.696;2023-04-24T07:23:20;22.05;;;17.70;;
73776;SDS011;62088;50.240;2.696;2023-04-24T07:25:47;22.55;;;17.13;;
73776;SDS011;62088;50.240;2.696;2023-04-24T07:28:14;23.85;;;17.63;;
73776;SDS011;62088;50.240;2.696;2023-04-24T07:30:43;21.83;;;16.75;;
73776;SDS011;62088;50.240;2.696;2023-04-24T07:33:12;24.35;;;18.23;;
73776;SDS011;62088;50.240;2.696;2023-04-24T07:35:39;27.73;;;18.45;;
73776;SDS011;62088;50.240;2.696;2023-04-24T07:38:06;23.50;;;18.42;;
73776;SDS011;62088;50.240;2.696;2023-04-24T07:40:34;23.60;;;18.20;;
73776;SDS011;62088;50.240;2.696;2023-04-24T07:43:01;24.55;;;19.92;;
73776;SDS011;62088;50.240;2.696;2023-04-24T07:45:28;25.73;;;18.98;;
73776;SDS011;62088;50.240;2.696;2023-04-24T07:47:55;26.58;;;19.92;;
73776;SDS011;62088;50.240;2.696;2023-04-24T07:50:22;21.73;;;17.98;;
73776;SDS011;62088;50.240;2.696;2023-04-24T07:52:49;25.85;;;20.13;;
73776;SDS011;62088;50.240;2.696;2023-04-24T07:55:16;23.90;;;19.90;;
73776;SDS011;62088;50.240;2.696;2023-04-24T07:57:46;25.95;;;20.50;;
73776;SDS011;62088;50.240;2.696;2023-04-24T08:00:14;28.52;;;21.52;;
73776;SDS011;62088;50.240;2.696;2023-04-24T08:02:41;29.38;;;22.33;;
73776;SDS011;62088;50.240;2.696;2023-04-24T08:05:08;31.98;;;24.10;;
73776;SDS011;62088;50.240;2.696;2023-04-24T08:07:36;32.78;;;24.77;;
73776;SDS011;62088;50.240;2.696;2023-04-24T08:10:04;32.60;;;24.27;;
73776;SDS011;62088;50.240;2.696;2023-04-24T08:12:32;33.28;;;24.80;;
73776;SDS011;62088;50.240;2.696;2023-04-24T08:14:59;30.70;;;23.20;;
73776;SDS011;62088;50.240;2.696;2023-04-24T08:17:26;29.65;;;24.00;;
73776;SDS011;62088;50.240;2.696;2023-04-24T08:19:53;28.73;;;23.90;;
73776;SDS011;62088;50.240;2.696;2023-04-24T08:22:27;34.22;;;24.77;;
73776;SDS011;62088;50.240;2.696;2023-04-24T08:24:55;29.60;;;22.10;;
73776;SDS011;62088;50.240;2.696;2023-04-24T08:27:23;26.60;;;20.85;;
73776;SDS011;62088;50.240;2.696;2023-04-24T08:29:50;27.52;;;20.52;;
73776;SDS011;62088;50.240;2.696;2023-04-24T08:32:19;26.67;;;21.00;;
73776;SDS011;62088;50.240;2.696;2023-04-24T08:34:46;26.10;;;20.55;;
73776;SDS011;62088;50.240;2.696;2023-04-24T08:37:15;27.55;;;20.08;;
73776;SDS011;62088;50.240;2.696;2023-04-24T08:39:42;24.67;;;19.92;;
73776;SDS011;62088;50.240;2.696;2023-04-24T08:42:09;24.58;;;19.25;;
73776;SDS011;62088;50.240;2.696;2023-04-24T08:44:39;24.25;;;19.80;;
73776;SDS011;62088;50.240;2.696;2023-04-24T08:47:07;23.92;;;19.85;;
73776;SDS011;62088;50.240;2.696;2023-04-24T08:49:35;25.63;;;20.10;;
73776;SDS011;62088;50.240;2.696;2023-04-24T08:52:07;26.23;;;20.60;;
73776;SDS011;62088;50.240;2.696;2023-04-24T08:54:35;24.05;;;18.65;;
73776;SDS011;62088;50.240;2.696;2023-04-24T08:57:02;22.20;;;18.50;;
73776;SDS011;62088;50.240;2.696;2023-04-24T08:59:30;22.75;;;17.58;;
73776;SDS011;62088;50.240;2.696;2023-04-24T09:01:58;20.48;;;18.15;;
73776;SDS011;62088;50.240;2.696;2023-04-24T09:04:25;22.92;;;17.83;;
73776;SDS011;62088;50.240;2.696;2023-04-24T09:06:56;18.98;;;16.88;;
73776;SDS011;62088;50.240;2.696;2023-04-24T09:09:24;19.70;;;16.55;;
73776;SDS011;62088;50.240;2.696;2023-04-24T09:11:52;21.88;;;16.45;;
73776;SDS011;62088;50.240;2.696;2023-04-24T09:14:21;21.75;;;15.25;;
73776;SDS011;62088;50.240;2.696;2023-04-24T09:16:50;20.42;;;15.48;;
73776;SDS011;62088;50.240;2.696;2023-04-24T09:19:17;18.05;;;14.80;;
73776;SDS011;62088;50.240;2.696;2023-04-24T09:21:45;21.05;;;15.40;;
73776;SDS011;62088;50.240;2.696;2023-04-24T09:24:17;19.17;;;14.90;;
73776;SDS011;62088;50.240;2.696;2023-04-24T09:26:47;19.55;;;16.23;;
73776;SDS011;62088;50.240;2.696;2023-04-24T09:29:18;19.60;;;14.75;;
73776;SDS011;62088;50.240;2.696;2023-04-24T09:31:45;19.40;;;14.75;;
73776;SDS011;62088;50.240;2.696;2023-04-24T09:34:12;17.58;;;13.75;;
73776;SDS011;62088;50.240;2.696;2023-04-24T09:36:41;15.30;;;12.93;;
73776;SDS011;62088;50.240;2.696;2023-04-24T09:39:13;15.43;;;12.93;;
73776;SDS011;62088;50.240;2.696;2023-04-24T09:41:47;15.80;;;11.88;;
73776;SDS011;62088;50.240;2.696;2023-04-24T09:44:21;16.83;;;12.02;;
73776;SDS011;62088;50.240;2.696;2023-04-24T09:46:49;14.95;;;12.55;;
73776;SDS011;62088;50.240;2.696;2023-04-24T09:49:25;15.55;;;11.57;;
73776;SDS011;62088;50.240;2.696;2023-04-24T09:52:14;13.90;;;11.52;;
73776;SDS011;62088;50.240;2.696;2023-04-24T09:54:41;14.00;;;11.18;;
73776;SDS011;62088;50.240;2.696;2023-04-24T09:57:18;13.02;;;11.57;;
73776;SDS011;62088;50.240;2.696;2023-04-24T09:59:46;14.40;;;12.25;;
73776;SDS011;62088;50.240;2.696;2023-04-24T10:02:17;14.02;;;11.65;;
73776;SDS011;62088;50.240;2.696;2023-04-24T10:04:55;13.35;;;11.18;;
73776;SDS011;62088;50.240;2.696;2023-04-24T10:07:25;14.43;;;11.43;;
73776;SDS011;62088;50.240;2.696;2023-04-24T10:09:53;13.63;;;12.07;;
73776;SDS011;62088;50.240;2.696;2023-04-24T10:12:21;14.95;;;12.32;;
73776;SDS011;62088;50.240;2.696;2023-04-24T10:14:49;15.45;;;11.85;;
73776;SDS011;62088;50.240;2.696;2023-04-24T10:17:17;14.10;;;11.27;;
73776;SDS011;62088;50.240;2.696;2023-04-24T10:19:47;12.43;;;10.82;;
73776;SDS011;62088;50.240;2.696;2023-04-24T10:22:14;16.63;;;11.32;;
73776;SDS011;62088;50.240;2.696;2023-04-24T10:24:44;15.65;;;10.77;;
73776;SDS011;62088;50.240;2.696;2023-04-24T10:27:12;13.02;;;10.85;;
73776;SDS011;62088;50.240;2.696;2023-04-24T10:29:41;17.75;;;10.55;;
73776;SDS011;62088;50.240;2.696;2023-04-24T10:32:11;14.00;;;10.43;;
73776;SDS011;62088;50.240;2.696;2023-04-24T10:34:38;12.35;;;9.38;;
73776;SDS011;62088;50.240;2.696;2023-04-24T10:37:05;13.48;;;9.23;;
73776;SDS011;62088;50.240;2.696;2023-04-24T10:39:32;11.35;;;9.00;;
73776;SDS011;62088;50.240;2.696;2023-04-24T10:42:00;11.43;;;9.00;;
73776;SDS011;62088;50.240;2.696;2023-04-24T10:44:27;10.30;;;8.63;;
73776;SDS011;62088;50.240;2.696;2023-04-24T10:47:03;9.95;;;8.35;;
73776;SDS011;62088;50.240;2.696;2023-04-24T10:49:31;10.05;;;7.95;;
73776;SDS011;62088;50.240;2.696;2023-04-24T10:52:02;10.82;;;8.70;;
73776;SDS011;62088;50.240;2.696;2023-04-24T10:59:49;11.60;;;7.35;;
73776;SDS011;62088;50.240;2.696;2023-04-24T11:02:36;8.10;;;6.28;;
73776;SDS011;62088;50.240;2.696;2023-04-24T11:05:05;8.55;;;6.43;;
73776;SDS011;62088;50.240;2.696;2023-04-24T11:10:39;8.65;;;6.18;;
73776;SDS011;62088;50.240;2.696;2023-04-24T11:13:07;9.00;;;6.13;;
73776;SDS011;62088;50.240;2.696;2023-04-24T11:15:36;9.43;;;6.13;;
73776;SDS011;62088;50.240;2.696;2023-04-24T11:18:03;9.80;;;6.03;;
73776;SDS011;62088;50.240;2.696;2023-04-24T11:20:30;7.80;;;6.25;;
73776;SDS011;62088;50.240;2.696;2023-04-24T11:23:00;8.85;;;6.47;;
73776;SDS011;62088;50.240;2.696;2023-04-24T11:25:30;9.15;;;6.05;;
73776;SDS011;62088;50.240;2.696;2023-04-24T11:28:04;10.50;;;6.55;;
73776;SDS011;62088;50.240;2.696;2023-04-24T11:30:33;9.30;;;6.18;;
73776;SDS011;62088;50.240;2.696;2023-04-24T11:33:03;7.88;;;5.80;;
73776;SDS011;62088;50.240;2.696;2023-04-24T11:35:34;8.50;;;6.05;;
73776;SDS011;62088;50.240;2.696;2023-04-24T11:38:05;7.28;;;5.70;;
73776;SDS011;62088;50.240;2.696;2023-04-24T11:40:36;7.20;;;5.88;;
73776;SDS011;62088;50.240;2.696;2023-04-24T11:43:04;8.60;;;5.80;;
73776;SDS011;62088;50.240;2.696;2023-04-24T11:45:33;7.57;;;5.22;;
73776;SDS011;62088;50.240;2.696;2023-04-24T11:48:02;9.02;;;6.20;;
73776;SDS011;62088;50.240;2.696;2023-04-24T11:50:30;8.40;;;6.05;;
73776;SDS011;62088;50.240;2.696;2023-04-24T11:52:57;8.70;;;5.35;;
73776;SDS011;62088;50.240;2.696;2023-04-24T11:55:26;6.72;;;4.47;;
73776;SDS011;62088;50.240;2.696;2023-04-24T11:57:57;7.63;;;5.32;;
73776;SDS011;62088;50.240;2.696;2023-04-24T12:03:03;7.55;;;5.03;;
73776;SDS011;62088;50.240;2.696;2023-04-24T12:05:40;7.13;;;5.10;;
73776;SDS011;62088;50.240;2.696;2023-04-24T12:08:08;7.57;;;5.50;;
73776;SDS011;62088;50.240;2.696;2023-04-24T12:10:35;9.13;;;5.90;;
73776;SDS011;62088;50.240;2.696;2023-04-24T12:13:02;7.53;;;5.68;;
73776;SDS011;62088;50.240;2.696;2023-04-24T12:15:29;7.93;;;5.50;;
73776;SDS011;62088;50.240;2.696;2023-04-24T12:17:57;7.88;;;5.68;;
73776;SDS011;62088;50.240;2.696;2023-04-24T12:20:28;7.57;;;5.40;;
73776;SDS011;62088;50.240;2.696;2023-04-24T12:22:57;7.45;;;5.40;;
73776;SDS011;62088;50.240;2.696;2023-04-24T12:25:26;7.28;;;5.35;;
73776;SDS011;62088;50.240;2.696;2023-04-24T12:30:32;8.27;;;6.15;;
73776;SDS011;62088;50.240;2.696;2023-04-24T12:33:02;7.80;;;5.97;;
73776;SDS011;62088;50.240;2.696;2023-04-24T12:35:31;7.85;;;6.03;;
73776;SDS011;62088;50.240;2.696;2023-04-24T12:38:06;10.80;;;5.90;;
73776;SDS011;62088;50.240;2.696;2023-04-24T12:40:35;7.78;;;5.20;;
73776;SDS011;62088;50.240;2.696;2023-04-24T12:43:02;7.80;;;5.80;;
73776;SDS011;62088;50.240;2.696;2023-04-24T12:45:43;6.90;;;5.40;;
73776;SDS011;62088;50.240;2.696;2023-04-24T12:48:11;7.78;;;5.45;;
73776;SDS011;62088;50.240;2.696;2023-04-24T12:50:40;7.72;;;6.25;;
73776;SDS011;62088;50.240;2.696;2023-04-24T12:53:12;8.07;;;5.80;;
73776;SDS011;62088;50.240;2.696;2023-04-24T12:55:39;6.72;;;4.55;;
73776;SDS011;62088;50.240;2.696;2023-04-24T12:58:07;5.07;;;3.50;;
73776;SDS011;62088;50.240;2.696;2023-04-24T13:00:34;6.70;;;4.03;;
73776;SDS011;62088;50.240;2.696;2023-04-24T13:03:01;6.72;;;4.07;;
73776;SDS011;62088;50.240;2.696;2023-04-24T13:05:29;6.63;;;4.82;;
73776;SDS011;62088;50.240;2.696;2023-04-24T13:07:57;6.45;;;4.65;;
73776;SDS011;62088;50.240;2.696;2023-04-24T13:10:24;6.13;;;4.63;;
73776;SDS011;62088;50.240;2.696;2023-04-24T13:12:51;6.43;;;4.10;;
73776;SDS011;62088;50.240;2.696;2023-04-24T13:15:19;6.47;;;4.15;;
73776;SDS011;62088;50.240;2.696;2023-04-24T13:17:47;7.35;;;4.40;;
73776;SDS011;62088;50.240;2.696;2023-04-24T13:20:14;8.77;;;4.68;;
73776;SDS011;62088;50.240;2.696;2023-04-24T13:22:41;5.75;;;3.50;;
73776;SDS011;62088;50.240;2.696;2023-04-24T13:25:08;7.07;;;4.55;;
73776;SDS011;62088;50.240;2.696;2023-04-24T13:27:38;6.85;;;3.97;;
73776;SDS011;62088;50.240;2.696;2023-04-24T13:30:06;5.57;;;3.67;;
73776;SDS011;62088;50.240;2.696;2023-04-24T13:32:33;5.95;;;4.28;;
73776;SDS011;62088;50.240;2.696;2023-04-24T13:35:01;6.63;;;4.25;;
73776;SDS011;62088;50.240;2.696;2023-04-24T13:37:29;6.43;;;4.60;;
73776;SDS011;62088;50.240;2.696;2023-04-24T13:39:56;7.80;;;4.55;;
73776;SDS011;62088;50.240;2.696;2023-04-24T13:42:23;7.43;;;4.50;;
73776;SDS011;62088;50.240;2.696;2023-04-24T13:44:50;7.97;;;4.82;;
73776;SDS011;62088;50.240;2.696;2023-04-24T13:47:17;7.35;;;4.60;;
73776;SDS011;62088;50.240;2.696;2023-04-24T13:49:44;8.15;;;4.40;;
73776;SDS011;62088;50.240;2.696;2023-04-24T13:52:11;6.95;;;4.20;;
73776;SDS011;62088;50.240;2.696;2023-04-24T13:54:38;6.30;;;4.57;;
73776;SDS011;62088;50.240;2.696;2023-04-24T13:57:05;6.07;;;4.07;;
73776;SDS011;62088;50.240;2.696;2023-04-24T13:59:32;6.78;;;4.03;;
73776;SDS011;62088;50.240;2.696;2023-04-24T14:01:59;6.85;;;4.10;;
73776;SDS011;62088;50.240;2.696;2023-04-24T14:04:26;5.72;;;4.22;;
73776;SDS011;62088;50.240;2.696;2023-04-24T14:06:54;6.15;;;4.00;;
73776;SDS011;62088;50.240;2.696;2023-04-24T14:09:21;7.85;;;4.30;;
73776;SDS011;62088;50.240;2.696;2023-04-24T14:11:48;7.82;;;4.20;;
73776;SDS011;62088;50.240;2.696;2023-04-24T14:14:15;8.02;;;4.45;;
73776;SDS011;62088;50.240;2.696;2023-04-24T14:16:42;7.43;;;4.22;;
73776;SDS011;62088;50.240;2.696;2023-04-24T14:19:09;7.35;;;4.50;;
73776;SDS011;62088;50.240;2.696;2023-04-24T14:21:36;6.32;;;4.63;;
73776;SDS011;62088;50.240;2.696;2023-04-24T14:24:03;7.60;;;4.50;;
73776;SDS011;62088;50.240;2.696;2023-04-24T14:26:30;8.25;;;5.00;;
73776;SDS011;62088;50.240;2.696;2023-04-24T14:28:57;7.78;;;5.38;;
73776;SDS011;62088;50.240;2.696;2023-04-24T14:31:41;6.75;;;4.53;;
73776;SDS011;62088;50.240;2.696;2023-04-24T14:34:09;9.57;;;5.00;;
73776;SDS011;62088;50.240;2.696;2023-04-24T14:36:36;7.03;;;4.90;;
73776;SDS011;62088;50.240;2.696;2023-04-24T14:39:04;8.13;;;5.93;;
73776;SDS011;62088;50.240;2.696;2023-04-24T14:41:33;6.85;;;4.68;;
73776;SDS011;62088;50.240;2.696;2023-04-24T14:44:03;8.57;;;5.85;;
73776;SDS011;62088;50.240;2.696;2023-04-24T14:46:30;9.50;;;5.50;;
73776;SDS011;62088;50.240;2.696;2023-04-24T14:48:58;6.07;;;4.70;;
73776;SDS011;62088;50.240;2.696;2023-04-24T14:51:25;7.85;;;4.28;;
73776;SDS011;62088;50.240;2.696;2023-04-24T14:53:52;7.07;;;4.10;;